Time;durP1;ratioP1;P1;durP2;ratioP2;P2;SDS_P1;SDS_P2;PMS_P1;PMS_P2;Temp;Humidity;BMP_temperature;BMP_pressure;BME280_temperature;BME280_humidity;BME280_pressure;Samples;Min_cycle;Max_cycle;Signal;HPM_P1;HPM_P2
2021/09/01 00:01:34;;;;;;;9.40;3.45;;;;;;;;;;5022169;28;20035;-83
2021/09/01 00:03:59;;;;;;;9.02;3.45;;;;;;;;;;5038863;28;20029;-83
2021/09/01 00:06:24;;;;;;;13.10;3.70;;;;;;;;;;5038638;28;20433;-83
2021/09/01 00:08:51;;;;;;;12.50;3.88;;;;;;;;;;5038865;28;20024;-83
2021/09/01 00:11:18;;;;;;;10.23;3.40;;;;;;;;;;5039457;28;20021;-83
2021/09/01 00:13:43;;;;;;;11.48;3.45;;;;;;;;;;5023112;28;20025;-83
2021/09/01 00:16:25;;;;;;;9.82;3.53;;;;;;;;;;5038199;28;20132;-83
2021/09/01 00:18:52;;;;;;;12.73;3.70;;;;;;;;;;5026418;28;20028;-83
2021/09/01 00:21:17;;;;;;;11.52;3.40;;;;;;;;;;5038002;28;20036;-83
2021/09/01 00:23:43;;;;;;;9.85;3.67;;;;;;;;;;5038397;28;20029;-83
2021/09/01 00:26:08;;;;;;;10.38;3.85;;;;;;;;;;5023403;28;20040;-83
2021/09/01 00:28:33;;;;;;;11.65;3.83;;;;;;;;;;5022932;28;20029;-83
2021/09/01 00:30:59;;;;;;;11.45;3.38;;;;;;;;;;5054972;28;20457;-83
2021/09/01 00:33:24;;;;;;;10.55;3.75;;;;;;;;;;5041187;28;20021;-83
2021/09/01 00:35:50;;;;;;;12.95;3.63;;;;;;;;;;5026543;28;20025;-83
2021/09/01 00:38:15;;;;;;;12.35;3.70;;;;;;;;;;5025987;28;20025;-83
2021/09/01 00:40:40;;;;;;;10.80;3.38;;;;;;;;;;5042576;28;20175;-83
2021/09/01 00:43:06;;;;;;;13.00;3.85;;;;;;;;;;5026541;28;20033;-83
2021/09/01 00:45:32;;;;;;;9.93;3.58;;;;;;;;;;5059590;28;20025;-83
2021/09/01 00:47:57;;;;;;;10.45;3.60;;;;;;;;;;5042519;28;20484;-83
2021/09/01 00:50:23;;;;;;;12.00;4.10;;;;;;;;;;5058670;28;20024;-83
2021/09/01 00:52:48;;;;;;;9.30;3.47;;;;;;;;;;5041581;28;20056;-83
2021/09/01 00:55:14;;;;;;;10.18;3.30;;;;;;;;;;5025410;28;20078;-83
2021/09/01 00:57:41;;;;;;;10.98;3.72;;;;;;;;;;5060422;28;20384;-83
2021/09/01 01:00:10;;;;;;;12.40;3.67;;;;;;;;;;5059498;28;20029;-83
2021/09/01 01:02:36;;;;;;;10.80;3.30;;;;;;;;;;5059481;28;20116;-83
2021/09/01 01:05:01;;;;;;;10.23;3.22;;;;;;;;;;5058868;28;20102;-83
2021/09/01 01:07:27;;;;;;;11.88;4.13;;;;;;;;;;5042590;28;20067;-83
2021/09/01 01:09:52;;;;;;;11.52;3.50;;;;;;;;;;5026024;28;20028;-83
2021/09/01 01:12:20;;;;;;;10.60;3.35;;;;;;;;;;5025735;28;20128;-83
2021/09/01 01:14:48;;;;;;;11.32;3.40;;;;;;;;;;5059411;28;20028;-83
2021/09/01 01:17:16;;;;;;;12.38;3.40;;;;;;;;;;5059224;28;20418;-83
2021/09/01 01:19:47;;;;;;;9.95;3.30;;;;;;;;;;5058968;28;20361;-83
2021/09/01 01:22:14;;;;;;;11.20;3.47;;;;;;;;;;5059845;28;20051;-83
2021/09/01 01:24:49;;;;;;;14.07;4.00;;;;;;;;;;5058883;28;20116;-83
2021/09/01 01:27:37;;;;;;;13.73;3.80;;;;;;;;;;5058227;28;20024;-83
2021/09/01 01:30:18;;;;;;;9.75;3.63;;;;;;;;;;5058222;28;20484;-83
2021/09/01 01:32:49;;;;;;;9.70;3.58;;;;;;;;;;5058686;28;20423;-83
2021/09/01 01:35:27;;;;;;;11.07;3.60;;;;;;;;;;5041301;28;20078;-83
2021/09/01 01:37:53;;;;;;;12.48;3.70;;;;;;;;;;5058243;28;20035;-83
2021/09/01 01:40:19;;;;;;;8.68;3.22;;;;;;;;;;5041588;28;20028;-83
2021/09/01 01:42:44;;;;;;;12.02;3.63;;;;;;;;;;5059917;28;20028;-83
2021/09/01 01:45:10;;;;;;;10.88;3.53;;;;;;;;;;5057643;28;20033;-83
2021/09/01 01:47:36;;;;;;;8.80;3.58;;;;;;;;;;5058040;28;20067;-83
2021/09/01 01:50:03;;;;;;;13.18;3.83;;;;;;;;;;5058324;28;20013;-83
2021/09/01 01:52:28;;;;;;;12.52;4.38;;;;;;;;;;5057491;28;20067;-83
2021/09/01 01:54:54;;;;;;;9.32;3.60;;;;;;;;;;5040605;28;20037;-83
2021/09/01 01:57:19;;;;;;;11.05;3.72;;;;;;;;;;5040524;28;20469;-83
2021/09/01 01:59:45;;;;;;;11.65;3.85;;;;;;;;;;5040524;28;20037;-83
2021/09/01 02:02:10;;;;;;;12.60;4.10;;;;;;;;;;5057574;28;20021;-83
2021/09/01 02:04:36;;;;;;;13.88;4.00;;;;;;;;;;5057092;28;20025;-83
2021/09/01 02:07:02;;;;;;;11.30;4.07;;;;;;;;;;5042010;28;20025;-83
2021/09/01 02:09:27;;;;;;;9.90;4.03;;;;;;;;;;5041061;28;20021;-83
2021/09/01 02:11:53;;;;;;;14.10;3.92;;;;;;;;;;5047293;28;20500;-83
2021/09/01 02:14:18;;;;;;;12.13;3.92;;;;;;;;;;5057284;28;20021;-83
2021/09/01 02:16:44;;;;;;;13.73;4.45;;;;;;;;;;5024942;28;20040;-83
2021/09/01 02:19:10;;;;;;;9.88;3.85;;;;;;;;;;5057668;28;20036;-83
2021/09/01 02:21:37;;;;;;;9.73;3.83;;;;;;;;;;5058197;28;20077;-84
2021/09/01 02:24:03;;;;;;;11.88;4.13;;;;;;;;;;5041146;28;20020;-83
2021/09/01 02:26:29;;;;;;;15.30;4.32;;;;;;;;;;5041143;28;20455;-82
2021/09/01 02:28:54;;;;;;;10.90;3.75;;;;;;;;;;5040824;28;20037;-83
2021/09/01 02:31:20;;;;;;;13.75;4.30;;;;;;;;;;5042090;28;20054;-83
2021/09/01 02:33:45;;;;;;;14.18;4.38;;;;;;;;;;5025017;28;20088;-83
2021/09/01 02:36:11;;;;;;;14.48;4.03;;;;;;;;;;5057643;28;20033;-83
2021/09/01 02:38:36;;;;;;;12.18;3.78;;;;;;;;;;5057599;28;20078;-83
2021/09/01 02:41:01;;;;;;;11.35;3.75;;;;;;;;;;5041527;28;20611;-85
2021/09/01 02:43:27;;;;;;;11.52;3.92;;;;;;;;;;5057488;28;20147;-83
2021/09/01 02:45:52;;;;;;;12.05;3.90;;;;;;;;;;5059013;28;20052;-83
2021/09/01 02:48:18;;;;;;;9.55;3.80;;;;;;;;;;5040374;28;20033;-82
2021/09/01 02:50:43;;;;;;;11.23;4.15;;;;;;;;;;5056362;28;20452;-83
2021/09/01 02:53:09;;;;;;;15.15;3.72;;;;;;;;;;5056633;28;20057;-83
2021/09/01 02:55:34;;;;;;;9.63;3.63;;;;;;;;;;5056516;28;20040;-83
2021/09/01 02:57:59;;;;;;;11.13;3.92;;;;;;;;;;5023933;28;20124;-83
2021/09/01 03:00:25;;;;;;;13.05;4.32;;;;;;;;;;5040176;28;20476;-83
2021/09/01 03:02:50;;;;;;;11.15;3.95;;;;;;;;;;5040430;28;20025;-83
2021/09/01 03:05:16;;;;;;;10.38;3.67;;;;;;;;;;5057396;28;20024;-83
2021/09/01 03:07:41;;;;;;;8.98;3.70;;;;;;;;;;5057406;28;20495;-83
2021/09/01 03:10:07;;;;;;;12.85;4.30;;;;;;;;;;5041988;28;20032;-83
2021/09/01 03:12:32;;;;;;;9.65;3.67;;;;;;;;;;5066460;28;20017;-83
2021/09/01 03:14:58;;;;;;;10.50;4.22;;;;;;;;;;5039687;28;20032;-83
2021/09/01 03:17:23;;;;;;;9.93;3.92;;;;;;;;;;5023494;28;20067;-83
2021/09/01 03:19:49;;;;;;;8.88;3.75;;;;;;;;;;5039006;28;20427;-84
2021/09/01 03:22:14;;;;;;;12.63;4.30;;;;;;;;;;5039889;28;20024;-83
2021/09/01 03:24:39;;;;;;;9.07;3.80;;;;;;;;;;5057964;28;20024;-83
2021/09/01 03:27:05;;;;;;;19.65;5.03;;;;;;;;;;5039700;28;20032;-83
2021/09/01 03:29:31;;;;;;;10.85;3.95;;;;;;;;;;5040512;28;20037;-83
2021/09/01 03:31:57;;;;;;;9.55;3.60;;;;;;;;;;5055139;28;20112;-83
2021/09/01 03:34:23;;;;;;;10.60;3.83;;;;;;;;;;5040202;28;20053;-83
2021/09/01 03:36:48;;;;;;;9.23;3.58;;;;;;;;;;5056626;28;20477;-83
2021/09/01 03:39:13;;;;;;;13.95;3.92;;;;;;;;;;5040521;28;20039;-83
2021/09/01 03:41:39;;;;;;;9.32;4.05;;;;;;;;;;5057164;28;20104;-83
2021/09/01 03:44:04;;;;;;;12.20;4.78;;;;;;;;;;5041136;28;20120;-83
2021/09/01 03:46:30;;;;;;;11.25;4.40;;;;;;;;;;5039812;28;20056;-83
2021/09/01 03:48:55;;;;;;;11.38;4.68;;;;;;;;;;5057082;28;20032;-83
2021/09/01 03:51:20;;;;;;;12.27;4.30;;;;;;;;;;5023417;28;20090;-83
2021/09/01 03:53:46;;;;;;;12.63;4.53;;;;;;;;;;5022195;28;20045;-84
2021/09/01 03:56:11;;;;;;;11.43;4.82;;;;;;;;;;5057591;28;20029;-83
2021/09/01 03:58:38;;;;;;;11.18;4.32;;;;;;;;;;5055361;28;20033;-83
2021/09/01 04:01:04;;;;;;;11.00;4.50;;;;;;;;;;5054996;28;20025;-82
2021/09/01 04:03:29;;;;;;;14.38;5.47;;;;;;;;;;5054519;28;20107;-82
2021/09/01 04:05:54;;;;;;;10.93;4.65;;;;;;;;;;5055187;28;20126;-82
2021/09/01 04:08:20;;;;;;;10.27;4.18;;;;;;;;;;5037642;28;20078;-82
2021/09/01 04:10:45;;;;;;;10.55;4.53;;;;;;;;;;5041315;28;20388;-83
2021/09/01 04:13:11;;;;;;;9.98;4.57;;;;;;;;;;5038663;28;20432;-84
2021/09/01 04:15:36;;;;;;;9.30;4.68;;;;;;;;;;5021872;28;20032;-85
2021/09/01 04:18:01;;;;;;;10.02;4.30;;;;;;;;;;5054992;28;20029;-82
2021/09/01 04:20:27;;;;;;;11.23;4.57;;;;;;;;;;5039188;28;20074;-82
2021/09/01 04:22:53;;;;;;;11.57;4.72;;;;;;;;;;5038812;28;20033;-83
2021/09/01 04:25:18;;;;;;;10.82;5.00;;;;;;;;;;5055401;28;20040;-82
2021/09/01 04:27:44;;;;;;;9.77;4.80;;;;;;;;;;5039189;28;20033;-82
2021/09/01 04:30:10;;;;;;;11.98;5.13;;;;;;;;;;5022551;28;20116;-82
2021/09/01 04:32:35;;;;;;;9.90;5.00;;;;;;;;;;5036168;28;20060;-82
2021/09/01 04:35:01;;;;;;;9.55;4.53;;;;;;;;;;5022091;28;20029;-82
2021/09/01 04:37:26;;;;;;;11.60;4.68;;;;;;;;;;5035594;28;20036;-82
2021/09/01 04:39:52;;;;;;;12.35;4.93;;;;;;;;;;5022445;28;20739;-84
2021/09/01 04:42:17;;;;;;;12.82;4.90;;;;;;;;;;5055554;28;20048;-83
2021/09/01 04:44:43;;;;;;;11.32;4.78;;;;;;;;;;5054858;28;20052;-83
2021/09/01 04:47:08;;;;;;;10.23;5.10;;;;;;;;;;5038944;28;20033;-83
2021/09/01 04:49:33;;;;;;;12.50;4.70;;;;;;;;;;5038814;28;20123;-83
2021/09/01 04:51:59;;;;;;;13.25;4.95;;;;;;;;;;5054898;28;20045;-83
2021/09/01 04:54:24;;;;;;;10.10;4.72;;;;;;;;;;5022008;28;20489;-83
2021/09/01 04:56:50;;;;;;;12.98;5.72;;;;;;;;;;5055216;28;20025;-83
2021/09/01 04:59:15;;;;;;;11.85;4.75;;;;;;;;;;5055267;28;20037;-83
2021/09/01 05:01:41;;;;;;;12.50;5.15;;;;;;;;;;5039482;28;20037;-83
2021/09/01 05:04:06;;;;;;;12.95;5.38;;;;;;;;;;5022667;28;20632;-83
2021/09/01 05:06:31;;;;;;;10.68;5.00;;;;;;;;;;5054853;28;20037;-83
2021/09/01 05:08:57;;;;;;;12.52;5.03;;;;;;;;;;5038115;28;20500;-83
2021/09/01 05:11:23;;;;;;;13.23;5.43;;;;;;;;;;5039186;28;20029;-83
2021/09/01 05:13:48;;;;;;;11.30;5.30;;;;;;;;;;5039619;28;20025;-83
2021/09/01 05:16:14;;;;;;;13.52;5.95;;;;;;;;;;5039390;28;20067;-83
2021/09/01 05:18:39;;;;;;;12.20;5.43;;;;;;;;;;5023663;28;20562;-83
2021/09/01 05:21:06;;;;;;;13.50;5.57;;;;;;;;;;5043094;28;20088;-83
2021/09/01 05:23:34;;;;;;;11.45;5.40;;;;;;;;;;5057785;28;20043;-83
2021/09/01 05:26:03;;;;;;;11.50;5.63;;;;;;;;;;5059626;28;20112;-83
2021/09/01 05:28:34;;;;;;;13.63;6.00;;;;;;;;;;5059723;28;20484;-83
2021/09/01 05:31:01;;;;;;;10.57;5.57;;;;;;;;;;5058927;28;20031;-83
2021/09/01 05:33:32;;;;;;;12.55;5.43;;;;;;;;;;5058293;28;20036;-83
2021/09/01 05:35:58;;;;;;;11.50;5.55;;;;;;;;;;5059871;28;20113;-83
2021/09/01 05:38:24;;;;;;;14.55;5.43;;;;;;;;;;5058802;28;20032;-83
2021/09/01 05:40:51;;;;;;;14.65;6.18;;;;;;;;;;5059645;28;20485;-83
2021/09/01 05:43:19;;;;;;;10.23;5.60;;;;;;;;;;5059552;28;20028;-83
2021/09/01 05:45:46;;;;;;;14.75;5.57;;;;;;;;;;5058479;28;20369;-83
2021/09/01 05:48:12;;;;;;;8.65;5.25;;;;;;;;;;5041996;28;20025;-83
2021/09/01 05:50:41;;;;;;;10.35;5.45;;;;;;;;;;5059878;28;20029;-83
2021/09/01 05:53:07;;;;;;;13.30;6.32;;;;;;;;;;5042991;28;20069;-83
2021/09/01 05:55:35;;;;;;;12.60;6.10;;;;;;;;;;5059423;28;20044;-83
2021/09/01 05:58:02;;;;;;;12.77;6.38;;;;;;;;;;5059783;28;20102;-83
2021/09/01 06:00:39;;;;;;;11.75;5.90;;;;;;;;;;5061899;28;20024;-83
2021/09/01 06:03:31;;;;;;;14.60;6.35;;;;;;;;;;5043992;28;20055;-83
2021/09/01 06:05:59;;;;;;;11.95;5.90;;;;;;;;;;5049036;28;20029;-83
2021/09/01 06:08:30;;;;;;;11.70;5.75;;;;;;;;;;5060132;28;20035;-84
2021/09/01 06:10:58;;;;;;;15.05;5.82;;;;;;;;;;5070687;28;20111;-83
2021/09/01 06:13:23;;;;;;;11.75;5.90;;;;;;;;;;5064572;28;20060;-83
2021/09/01 06:15:49;;;;;;;10.75;5.63;;;;;;;;;;5062561;28;20488;-83
2021/09/01 06:18:15;;;;;;;14.52;6.50;;;;;;;;;;5060254;28;20472;-83
2021/09/01 06:20:40;;;;;;;13.35;7.18;;;;;;;;;;5061010;28;20493;-83
2021/09/01 06:23:06;;;;;;;16.05;6.75;;;;;;;;;;5061506;28;20468;-83
2021/09/01 06:25:32;;;;;;;15.35;6.78;;;;;;;;;;5044991;28;20029;-83
2021/09/01 06:27:58;;;;;;;11.75;6.78;;;;;;;;;;5026084;28;20036;-83
2021/09/01 06:30:24;;;;;;;12.23;6.68;;;;;;;;;;5038994;28;20090;-83
2021/09/01 06:32:50;;;;;;;12.70;6.70;;;;;;;;;;5040727;28;20024;-83
2021/09/01 06:35:16;;;;;;;16.17;7.45;;;;;;;;;;5024435;28;20044;-83
2021/09/01 06:37:42;;;;;;;14.38;6.85;;;;;;;;;;5057738;28;20037;-83
2021/09/01 06:40:09;;;;;;;13.15;6.55;;;;;;;;;;5059300;28;20016;-83
2021/09/01 06:42:35;;;;;;;15.82;6.45;;;;;;;;;;5042117;28;20035;-83
2021/09/01 06:45:00;;;;;;;13.73;6.60;;;;;;;;;;5039705;28;20041;-83
2021/09/01 06:47:26;;;;;;;13.98;6.05;;;;;;;;;;5057695;28;20037;-83
2021/09/01 06:49:51;;;;;;;11.52;6.03;;;;;;;;;;5059459;28;20032;-84
2021/09/01 06:52:17;;;;;;;12.13;6.13;;;;;;;;;;5058765;28;20045;-83
2021/09/01 06:54:42;;;;;;;13.52;6.68;;;;;;;;;;5038843;28;20477;-83
2021/09/01 06:57:08;;;;;;;11.15;6.38;;;;;;;;;;5023737;28;20040;-83
2021/09/01 06:59:33;;;;;;;14.35;6.15;;;;;;;;;;5040703;28;20110;-83
2021/09/01 07:01:58;;;;;;;13.77;6.55;;;;;;;;;;5041293;28;20039;-83
2021/09/01 07:04:24;;;;;;;12.23;5.97;;;;;;;;;;5023794;28;20499;-83
2021/09/01 07:06:49;;;;;;;13.52;6.60;;;;;;;;;;5059359;28;20039;-83
2021/09/01 07:09:15;;;;;;;15.82;6.28;;;;;;;;;;5040164;28;20445;-83
2021/09/01 07:11:40;;;;;;;12.25;5.65;;;;;;;;;;5068295;28;20021;-83
2021/09/01 07:14:08;;;;;;;15.20;6.65;;;;;;;;;;5055823;28;20075;-83
2021/09/01 07:16:34;;;;;;;13.02;6.20;;;;;;;;;;5040605;28;20067;-84
2021/09/01 07:19:00;;;;;;;11.82;6.00;;;;;;;;;;5023157;28;20466;-83
2021/09/01 07:21:25;;;;;;;13.77;6.40;;;;;;;;;;5023154;28;20032;-83
2021/09/01 07:23:51;;;;;;;11.30;5.78;;;;;;;;;;5023447;28;20070;-83
2021/09/01 07:26:16;;;;;;;15.85;6.15;;;;;;;;;;5042351;28;20055;-83
2021/09/01 07:28:42;;;;;;;12.07;6.15;;;;;;;;;;5058104;28;20028;-83
2021/09/01 07:31:08;;;;;;;11.05;5.82;;;;;;;;;;5060497;28;20040;-83
2021/09/01 07:33:34;;;;;;;15.07;5.97;;;;;;;;;;5059012;28;20079;-83
2021/09/01 07:36:00;;;;;;;13.20;5.60;;;;;;;;;;5023166;28;20518;-83
2021/09/01 07:38:26;;;;;;;14.75;6.13;;;;;;;;;;5040372;28;20059;-83
2021/09/01 07:40:52;;;;;;;11.50;5.93;;;;;;;;;;5023065;28;20124;-84
2021/09/01 07:43:21;;;;;;;12.00;5.45;;;;;;;;;;5056204;28;20453;-83
2021/09/01 07:45:47;;;;;;;11.63;5.35;;;;;;;;;;5057208;28;20096;-83
2021/09/01 07:48:14;;;;;;;11.95;5.30;;;;;;;;;;5057487;28;20076;-83
2021/09/01 07:50:40;;;;;;;11.40;5.55;;;;;;;;;;5056731;28;20020;-83
2021/09/01 07:53:05;;;;;;;14.80;6.78;;;;;;;;;;5038111;28;20054;-83
2021/09/01 07:55:31;;;;;;;9.85;5.28;;;;;;;;;;5038464;28;20492;-83
2021/09/01 07:57:56;;;;;;;12.85;5.60;;;;;;;;;;5022338;28;20465;-83
2021/09/01 08:00:22;;;;;;;15.80;5.63;;;;;;;;;;5039434;28;20100;-83
2021/09/01 08:02:49;;;;;;;15.05;6.05;;;;;;;;;;5057201;28;20037;-83
2021/09/01 08:05:15;;;;;;;14.80;5.97;;;;;;;;;;5023408;28;20021;-83
2021/09/01 08:07:41;;;;;;;11.40;5.85;;;;;;;;;;5038402;28;20132;-83
2021/09/01 08:10:07;;;;;;;13.18;5.43;;;;;;;;;;5042394;28;20036;-83
2021/09/01 08:12:32;;;;;;;11.20;5.15;;;;;;;;;;5032783;28;20025;-84
2021/09/01 08:14:59;;;;;;;12.80;5.10;;;;;;;;;;5022708;28;20033;-83
2021/09/01 08:17:24;;;;;;;12.93;3.92;;;;;;;;;;5055490;28;20024;-84
2021/09/01 08:19:50;;;;;;;11.15;4.00;;;;;;;;;;5039797;28;20115;-84
2021/09/01 08:22:15;;;;;;;11.80;3.85;;;;;;;;;;5038634;28;20029;-83
2021/09/01 08:24:41;;;;;;;10.15;3.50;;;;;;;;;;5040347;28;20029;-83
2021/09/01 08:27:08;;;;;;;7.60;3.25;;;;;;;;;;5054307;28;20025;-83
2021/09/01 08:29:35;;;;;;;9.82;3.47;;;;;;;;;;5055398;28;20074;-83
2021/09/01 08:32:00;;;;;;;9.02;3.63;;;;;;;;;;5054449;28;20032;-83
2021/09/01 08:34:26;;;;;;;11.38;3.38;;;;;;;;;;5055494;28;20018;-83
2021/09/01 08:36:51;;;;;;;11.23;3.95;;;;;;;;;;5054149;28;20025;-83
2021/09/01 08:39:17;;;;;;;9.32;3.20;;;;;;;;;;5037058;28;20028;-83
2021/09/01 08:41:43;;;;;;;9.85;3.22;;;;;;;;;;5054191;28;20040;-83
2021/09/01 08:44:09;;;;;;;9.23;2.97;;;;;;;;;;5022036;28;20104;-83
2021/09/01 08:46:35;;;;;;;10.00;3.10;;;;;;;;;;5054629;28;20052;-83
2021/09/01 08:49:02;;;;;;;10.18;3.28;;;;;;;;;;5053855;28;20033;-83
2021/09/01 08:51:29;;;;;;;7.15;2.80;;;;;;;;;;5021834;28;20037;-83
2021/09/01 08:53:58;;;;;;;10.98;3.38;;;;;;;;;;5056201;28;20056;-83
2021/09/01 08:56:24;;;;;;;9.75;2.95;;;;;;;;;;5062049;28;20112;-83
2021/09/01 08:58:50;;;;;;;9.63;3.10;;;;;;;;;;5060974;28;20377;-84
2021/09/01 09:01:42;;;;;;;10.32;3.30;;;;;;;;;;5059593;28;20106;-84
2021/09/01 09:04:18;;;;;;;10.07;3.60;;;;;;;;;;5062539;28;20029;-84
2021/09/01 09:06:57;;;;;;;9.30;3.30;;;;;;;;;;5061178;28;20029;-84
2021/09/01 09:09:28;;;;;;;9.00;3.22;;;;;;;;;;5060512;28;20426;-84
2021/09/01 09:11:54;;;;;;;9.32;3.42;;;;;;;;;;5061166;28;20040;-84
2021/09/01 09:14:22;;;;;;;7.63;3.25;;;;;;;;;;5042904;28;20029;-83
2021/09/01 09:17:10;;;;;;;9.32;3.38;;;;;;;;;;5059189;28;20021;-83
2021/09/01 09:19:46;;;;;;;7.97;3.55;;;;;;;;;;5059655;28;20496;-84
2021/09/01 09:22:13;;;;;;;8.00;3.30;;;;;;;;;;5059789;28;20088;-84
2021/09/01 09:24:39;;;;;;;10.70;3.10;;;;;;;;;;5025493;28;20021;-83
2021/09/01 09:27:08;;;;;;;7.55;3.80;;;;;;;;;;5042906;28;20021;-83
2021/09/01 09:29:34;;;;;;;11.50;3.35;;;;;;;;;;5059850;28;20052;-83
2021/09/01 09:32:06;;;;;;;8.52;2.85;;;;;;;;;;5059635;28;20025;-83
2021/09/01 09:34:42;;;;;;;7.38;2.95;;;;;;;;;;5061972;28;20477;-84
2021/09/01 09:37:09;;;;;;;10.20;3.20;;;;;;;;;;5060432;28;20392;-84
2021/09/01 09:39:46;;;;;;;10.82;3.28;;;;;;;;;;5060661;28;20350;-83
2021/09/01 09:42:27;;;;;;;6.93;2.72;;;;;;;;;;5043169;28;20099;-83
2021/09/01 09:44:52;;;;;;;9.23;2.33;;;;;;;;;;5059401;28;20021;-83
2021/09/01 09:47:18;;;;;;;8.63;2.90;;;;;;;;;;5041979;28;20064;-83
2021/09/01 09:49:43;;;;;;;9.80;3.05;;;;;;;;;;5025543;28;20044;-83
2021/09/01 09:52:15;;;;;;;8.48;2.60;;;;;;;;;;5024846;28;20068;-83
2021/09/01 09:54:41;;;;;;;7.67;2.43;;;;;;;;;;5042557;28;20083;-83
2021/09/01 09:57:09;;;;;;;8.32;2.80;;;;;;;;;;5041843;28;20266;-84
2021/09/01 09:59:35;;;;;;;7.88;2.70;;;;;;;;;;5058909;28;20029;-84
2021/09/01 10:02:01;;;;;;;10.88;2.63;;;;;;;;;;5057470;28;20380;-84
2021/09/01 10:04:28;;;;;;;6.15;2.58;;;;;;;;;;5040365;28;20111;-84
2021/09/01 10:06:54;;;;;;;7.75;2.55;;;;;;;;;;5056275;28;20108;-84
2021/09/01 10:09:20;;;;;;;8.20;2.80;;;;;;;;;;5056653;28;20995;-83
2021/09/01 10:11:47;;;;;;;8.32;2.53;;;;;;;;;;5058488;28;20028;-84
2021/09/01 10:14:24;;;;;;;8.07;3.05;;;;;;;;;;5056843;28;20368;-84
2021/09/01 10:16:57;;;;;;;11.57;3.10;;;;;;;;;;5048245;28;20032;-83
2021/09/01 10:19:26;;;;;;;9.55;2.90;;;;;;;;;;5056835;28;20108;-83
2021/09/01 10:22:02;;;;;;;10.43;2.80;;;;;;;;;;5056603;28;20031;-84
2021/09/01 10:24:32;;;;;;;6.00;2.67;;;;;;;;;;5057574;28;20053;-84
2021/09/01 10:27:11;;;;;;;9.50;2.85;;;;;;;;;;5056211;28;20075;-84
2021/09/01 10:29:43;;;;;;;9.20;3.13;;;;;;;;;;5057178;28;20412;-84
2021/09/01 10:32:23;;;;;;;10.13;3.05;;;;;;;;;;5057541;28;20017;-84
2021/09/01 10:34:49;;;;;;;18.88;3.10;;;;;;;;;;5057184;28;20115;-83
2021/09/01 10:37:41;;;;;;;7.80;3.00;;;;;;;;;;5056577;28;20029;-84
2021/09/01 10:40:09;;;;;;;9.43;3.00;;;;;;;;;;5058385;28;20016;-84
2021/09/01 10:42:42;;;;;;;10.02;2.97;;;;;;;;;;5040472;28;20052;-84
2021/09/01 10:45:21;;;;;;;8.48;2.95;;;;;;;;;;5040763;28;20053;-83
2021/09/01 10:47:49;;;;;;;9.27;3.00;;;;;;;;;;5056453;28;20090;-84
2021/09/01 10:50:16;;;;;;;9.63;3.47;;;;;;;;;;5056108;28;20025;-84
2021/09/01 10:52:58;;;;;;;8.95;3.17;;;;;;;;;;5039572;28;20571;-84
2021/09/01 10:55:25;;;;;;;9.70;3.53;;;;;;;;;;5056339;28;20021;-83
2021/09/01 10:58:15;;;;;;;10.18;3.25;;;;;;;;;;5055544;28;20419;-83
2021/09/01 11:00:41;;;;;;;8.98;3.00;;;;;;;;;;5057707;28;20037;-83
2021/09/01 11:03:07;;;;;;;8.43;3.25;;;;;;;;;;5023527;28;20036;-84
2021/09/01 11:05:32;;;;;;;7.72;2.95;;;;;;;;;;5056188;28;20088;-83
2021/09/01 11:07:58;;;;;;;11.80;3.20;;;;;;;;;;5055757;28;20029;-84
2021/09/01 11:10:23;;;;;;;10.25;2.90;;;;;;;;;;5038918;28;20029;-84
2021/09/01 11:13:02;;;;;;;9.10;2.83;;;;;;;;;;5057149;28;20021;-84
2021/09/01 11:15:28;;;;;;;9.23;3.10;;;;;;;;;;5057376;28;20075;-84
2021/09/01 11:18:08;;;;;;;6.57;2.60;;;;;;;;;;5020838;28;20044;-84
2021/09/01 11:20:34;;;;;;;7.72;3.03;;;;;;;;;;5037339;28;20116;-83
2021/09/01 11:23:01;;;;;;;11.18;3.00;;;;;;;;;;5054189;28;20024;-83
2021/09/01 11:25:28;;;;;;;9.05;2.95;;;;;;;;;;5053983;28;20053;-83
2021/09/01 11:27:57;;;;;;;11.38;2.90;;;;;;;;;;5037605;28;20033;-84
2021/09/01 11:30:29;;;;;;;8.68;2.95;;;;;;;;;;5053654;28;20029;-84
2021/09/01 11:32:55;;;;;;;8.25;2.97;;;;;;;;;;5052685;28;20029;-83
2021/09/01 11:35:21;;;;;;;8.57;2.80;;;;;;;;;;5054650;28;20519;-83
2021/09/01 11:38:08;;;;;;;7.70;2.75;;;;;;;;;;5053503;28;20032;-84
2021/09/01 11:40:36;;;;;;;9.50;3.20;;;;;;;;;;5053809;28;20064;-84
2021/09/01 11:43:07;;;;;;;9.68;3.30;;;;;;;;;;5037004;28;20437;-84
2021/09/01 11:45:32;;;;;;;10.05;3.75;;;;;;;;;;5053143;28;20526;-83
2021/09/01 11:47:59;;;;;;;7.85;2.83;;;;;;;;;;5053535;28;20033;-83
2021/09/01 11:50:25;;;;;;;8.35;3.20;;;;;;;;;;5022370;28;20091;-84
2021/09/01 11:52:53;;;;;;;8.30;2.90;;;;;;;;;;5059046;28;20048;-84
2021/09/01 11:55:24;;;;;;;8.70;2.70;;;;;;;;;;5058263;28;20049;-84
2021/09/01 11:57:52;;;;;;;7.90;2.80;;;;;;;;;;5047397;28;20083;-84
2021/09/01 12:00:18;;;;;;;6.03;2.88;;;;;;;;;;5056291;28;20093;-85
2021/09/01 12:02:43;;;;;;;12.20;2.85;;;;;;;;;;5056591;28;20476;-84
2021/09/01 12:05:09;;;;;;;8.00;2.70;;;;;;;;;;5042203;28;20125;-84
2021/09/01 12:07:37;;;;;;;9.43;3.33;;;;;;;;;;5040566;28;20446;-83
2021/09/01 12:10:04;;;;;;;8.20;3.13;;;;;;;;;;5060561;28;20033;-83
2021/09/01 12:12:36;;;;;;;9.07;2.80;;;;;;;;;;5057049;28;20033;-83
2021/09/01 12:15:17;;;;;;;10.33;2.83;;;;;;;;;;5056734;28;20048;-84
2021/09/01 12:17:59;;;;;;;11.45;2.97;;;;;;;;;;5056921;28;20060;-84
2021/09/01 12:20:24;;;;;;;9.60;2.93;;;;;;;;;;5057595;28;20036;-84
2021/09/01 12:22:50;;;;;;;6.28;2.50;;;;;;;;;;5040143;28;20132;-84
2021/09/01 12:25:20;;;;;;;9.82;2.60;;;;;;;;;;5058154;28;20024;-84
2021/09/01 12:28:04;;;;;;;8.40;2.60;;;;;;;;;;5057853;28;20025;-84
2021/09/01 12:30:35;;;;;;;7.43;2.78;;;;;;;;;;5055205;28;20028;-84
2021/09/01 12:33:03;;;;;;;9.48;2.65;;;;;;;;;;5055986;28;20396;-84
2021/09/01 12:35:31;;;;;;;8.38;2.63;;;;;;;;;;5056015;28;20465;-84
2021/09/01 12:38:00;;;;;;;7.28;2.63;;;;;;;;;;5055250;28;20075;-84
2021/09/01 12:40:28;;;;;;;7.78;2.60;;;;;;;;;;5057178;28;20530;-84
2021/09/01 12:42:59;;;;;;;7.13;2.83;;;;;;;;;;5055896;28;20052;-84
2021/09/01 12:45:25;;;;;;;5.43;2.63;;;;;;;;;;5055533;28;20370;-84
2021/09/01 12:47:56;;;;;;;9.50;3.00;;;;;;;;;;5022154;28;20176;-84
2021/09/01 12:50:30;;;;;;;9.13;3.03;;;;;;;;;;5041441;28;20025;-84
2021/09/01 12:52:56;;;;;;;6.57;2.80;;;;;;;;;;5054900;28;20045;-84
2021/09/01 12:55:28;;;;;;;7.65;2.60;;;;;;;;;;5038330;28;20052;-84
2021/09/01 12:57:54;;;;;;;7.10;2.95;;;;;;;;;;5038260;28;20041;-84
2021/09/01 13:00:20;;;;;;;8.85;2.80;;;;;;;;;;5054963;28;20025;-84
2021/09/01 13:02:47;;;;;;;9.88;2.95;;;;;;;;;;5056791;28;20495;-84
2021/09/01 13:05:13;;;;;;;7.03;2.50;;;;;;;;;;5055072;28;20107;-83
2021/09/01 13:07:39;;;;;;;7.80;2.67;;;;;;;;;;5057139;28;20068;-84
2021/09/01 13:10:05;;;;;;;7.63;2.80;;;;;;;;;;5039952;28;20057;-84
2021/09/01 13:12:30;;;;;;;6.15;2.78;;;;;;;;;;5039344;28;20035;-84
2021/09/01 13:14:56;;;;;;;6.35;2.47;;;;;;;;;;5054572;28;20025;-84
2021/09/01 13:17:21;;;;;;;7.20;2.50;;;;;;;;;;5038748;28;20040;-83
2021/09/01 13:19:46;;;;;;;7.60;2.47;;;;;;;;;;5037880;28;20045;-84
2021/09/01 13:22:13;;;;;;;9.65;3.05;;;;;;;;;;5034546;28;20048;-84
2021/09/01 13:24:38;;;;;;;7.65;3.03;;;;;;;;;;5056880;28;20070;-84
2021/09/01 13:27:04;;;;;;;8.82;2.80;;;;;;;;;;5037754;28;20494;-84
2021/09/01 13:29:29;;;;;;;7.93;2.83;;;;;;;;;;5041059;28;20111;-84
2021/09/01 13:31:55;;;;;;;6.50;2.40;;;;;;;;;;5040726;28;20028;-84
2021/09/01 13:34:20;;;;;;;7.88;2.63;;;;;;;;;;5056347;28;20025;-84
2021/09/01 13:36:46;;;;;;;6.93;2.70;;;;;;;;;;5040313;28;20459;-84
2021/09/01 13:39:11;;;;;;;7.28;2.80;;;;;;;;;;5057463;28;20036;-84
2021/09/01 13:41:37;;;;;;;6.03;2.70;;;;;;;;;;5060203;28;20033;-84
2021/09/01 13:44:04;;;;;;;7.88;3.28;;;;;;;;;;5042548;28;20033;-84
2021/09/01 13:46:32;;;;;;;10.38;3.10;;;;;;;;;;5058438;28;20021;-84
2021/09/01 13:48:58;;;;;;;9.70;3.25;;;;;;;;;;5058161;28;20025;-84
2021/09/01 13:51:24;;;;;;;7.32;2.75;;;;;;;;;;5058574;28;20017;-85
2021/09/01 13:53:49;;;;;;;8.48;2.85;;;;;;;;;;5042180;28;20052;-84
2021/09/01 13:56:15;;;;;;;7.50;3.10;;;;;;;;;;5059905;28;20392;-84
2021/09/01 13:58:40;;;;;;;9.07;2.92;;;;;;;;;;5025983;28;20063;-84
2021/09/01 14:01:06;;;;;;;9.88;2.90;;;;;;;;;;5058013;28;20427;-84
2021/09/01 14:03:32;;;;;;;8.95;3.13;;;;;;;;;;5042736;28;20029;-84
2021/09/01 14:05:59;;;;;;;8.52;3.30;;;;;;;;;;5043732;28;20028;-84
2021/09/01 14:08:25;;;;;;;7.18;3.35;;;;;;;;;;5059188;28;20029;-84
2021/09/01 14:10:51;;;;;;;8.20;3.30;;;;;;;;;;5057763;28;20028;-84
2021/09/01 14:13:16;;;;;;;8.48;3.10;;;;;;;;;;5058775;28;20025;-84
2021/09/01 14:15:42;;;;;;;9.82;3.15;;;;;;;;;;5025646;28;20028;-84
2021/09/01 14:18:08;;;;;;;9.13;3.42;;;;;;;;;;5058607;28;20028;-84
2021/09/01 14:20:33;;;;;;;6.53;3.00;;;;;;;;;;5041724;28;20116;-84
2021/09/01 14:23:00;;;;;;;9.95;3.13;;;;;;;;;;5060900;28;20063;-84
2021/09/01 14:25:26;;;;;;;11.50;3.55;;;;;;;;;;5058908;28;20499;-84
2021/09/01 14:27:51;;;;;;;10.18;3.20;;;;;;;;;;5058077;28;20020;-84
2021/09/01 14:30:17;;;;;;;9.73;3.08;;;;;;;;;;5058693;28;20048;-84
2021/09/01 14:32:43;;;;;;;9.38;3.15;;;;;;;;;;5057801;28;20025;-84
2021/09/01 14:35:12;;;;;;;6.07;2.83;;;;;;;;;;5041603;28;20128;-84
2021/09/01 14:37:38;;;;;;;7.93;3.10;;;;;;;;;;5059501;28;20025;-84